• Join FlightAware (Why Join?)
  • Login
  • US Flag 
12:14PM EDT


 

Airport Tracker/Info


-or-


 

Live Flight TrackerFlight Track Log ✈ N54PT ✈ 07-Mar-2014 ✈ KRIU - KUAO

Flight Track Log - Related Links

Times and Time Zones

All times are in EST time to prevent confusion due to time zone crossing. See the N54PT flight status page for this flight to view local times or setup timezone preferences in your user account.

Time Position Orientation Groundspeed Altitude Reporting Facility
EST Latitude Longitude Course Direction KTS MPH feet Rate Location/Type
05:48PM 38.5667 -121.1333 354° North 150 173 4,200  Level Northern Cal TRACON
05:49PM 38.6000 -121.1333 360° North 161 185 5,200 1,080 Climbing Northern Cal TRACON
05:50PM 38.6208 -121.1394 347° North 160 184 5,900 1,320 Climbing Oakland Center
05:51PM 38.6636 -121.1378 North 157 181 7,400 1,320 Climbing Oakland Center
05:52PM 38.7083 -121.1406 357° North 162 186 8,700 1,260 Climbing Oakland Center
05:53PM 38.7539 -121.1489 352° North 164 189 10,100 1,320 Climbing Oakland Center
05:54PM 38.8075 -121.1463 354° North  Level FlightAware Approximate
05:54PM 38.8072 -121.1558 354° North 161 185 11,500  Level Oakland Center
05:55PM 38.8536 -121.1633 353° North 166 191 12,600 1,140 Climbing Oakland Center
05:56PM 38.8989 -121.1697 354° North 164 189 13,900 1,200 Climbing Oakland Center
05:57PM 38.9444 -121.1761 354° North 164 189 15,100 1,020 Climbing Oakland Center
05:58PM 38.9906 -121.1844 352° North 167 192 16,000 840 Climbing Oakland Center
05:59PM 39.0372 -121.1906 354° North 168 193 16,900 840 Climbing Oakland Center
06:00PM 39.0856 -121.1992 352° North 173 199 17,800 780 Climbing Oakland Center
06:01PM 39.1344 -121.2078 352° North 177 204 18,600 660 Climbing Oakland Center
06:02PM 39.1961 -121.2181 353° North 186 214 19,200 540 Climbing Oakland Center
06:03PM 39.2514 -121.2311 350° North 201 231 19,800 300 Climbing Oakland Center
06:04PM 39.3072 -121.2431 351° North 204 235 19,900  Climbing Oakland Center
06:05PM 39.3681 -121.2581 349° North 218 251 19,900  Level Oakland Center
06:06PM 39.4292 -121.2725 350° North 222 255 19,900  Level Oakland Center
06:07PM 39.4911 -121.2869 350° North 222 255 19,900  Level Oakland Center
06:08PM 39.5531 -121.3019 349° North 226 260 19,900  Level Oakland Center
06:09PM 39.6139 -121.3164 350° North 223 257 19,900 -60 Level Oakland Center
06:10PM 39.6758 -121.3308 350° North 226 260 19,800 -60 Descending Oakland Center
06:11PM 39.7483 -121.3478 350° North 222 255 19,800  Level Oakland Center
06:12PM 39.8097 -121.3622 350° North 223 257 19,800  Level Oakland Center
06:13PM 39.8722 -121.3772 350° North 227 261 19,800  Level Oakland Center
06:14PM 39.9336 -121.3922 349° North 227 261 19,800  Level Oakland Center
06:15PM 39.9967 -121.4069 350° North 229 264 19,800  Level Oakland Center
06:16PM 40.0589 -121.4206 350° North 229 264 19,800  Level Oakland Center
06:17PM 40.1331 -121.4394 349° North 227 261 19,800  Level Oakland Center
06:18PM 40.1967 -121.4542 350° North 231 266 19,800  Level Oakland Center
06:19PM 40.2581 -121.4683 350° North 228 262 19,800  Level Oakland Center
06:20PM 40.3222 -121.4836 350° North 231 266 19,800  Level Oakland Center
06:21PM 40.3850 -121.4994 349° North 231 266 19,800  Level Oakland Center
06:23PM 40.4475 -121.5147 349° North 230 265 19,800  Level Oakland Center
06:24PM 40.5100 -121.5278 351° North 229 264 19,800  Level Oakland Center
06:25PM 40.5864 -121.5467 349° North 233 268 19,800  Level Oakland Center
06:26PM 40.6492 -121.5636 348° North 232 267 19,800  Level Oakland Center
06:27PM 40.7117 -121.5778 350° North 230 265 19,800  Level Oakland Center
06:28PM 40.8014 -121.6000 349° North 230 265 19,800  Level Seattle Center
06:29PM 40.8378 -121.6083 350° North 232 267 19,800  Level Oakland Center
06:30PM 40.9003 -121.6231 350° North 230 265 19,800  Level Oakland Center
06:31PM 40.9628 -121.6389 349° North 230 265 19,800  Level Oakland Center
06:32PM 41.0261 -121.6547 349° North 232 267 19,800  Level Oakland Center
06:34PM 41.1539 -121.6864 349° North 229 264 19,800  Level Oakland Center
06:35PM 41.2300 -121.7042 350° North 231 266 19,800  Level Oakland Center
06:36PM 41.2931 -121.7236 347° North 232 267 19,800  Level Oakland Center
06:37PM 41.3550 -121.7361 351° North 228 262 19,800  Level Oakland Center
06:38PM 41.4183 -121.7522 349° North 230 265 19,800  Level Oakland Center
06:39PM 41.4806 -121.7672 350° North 229 264 19,800  Level Oakland Center
06:40PM 41.5425 -121.7822 350° North 227 261 19,800  Level Oakland Center
06:41PM 41.6047 -121.7986 349° North 228 262 19,800  Level Oakland Center
06:42PM 41.6672 -121.8158 348° North 230 265 19,800  Level Oakland Center
06:43PM 41.7422 -121.8333 350° North 229 264 19,800  Level Oakland Center
06:44PM 41.8044 -121.8492 349° North 229 264 19,800  Level Oakland Center
06:45PM 41.8825 -121.8708 348° North 229 264 19,800  Level Seattle Center
06:46PM 41.9561 -121.8894 349° North 228 262 19,800  Level Seattle Center
06:47PM 42.0172 -121.9047 349° North 228 262 19,800  Level Seattle Center
06:48PM 42.0781 -121.9197 350° North 229 264 19,800  Level Seattle Center
06:49PM 42.1369 -121.9344 349° North 225 259 19,800  Level Seattle Center
06:50PM 42.1989 -121.9500 349° North 226 260 19,800  Level Seattle Center
06:51PM 42.2597 -121.9658 349° North 225 259 19,800  Level Seattle Center
06:53PM 42.3211 -121.9817 349° North 225 259 19,800  Level Seattle Center
06:54PM 42.3953 -122.0000 350° North 226 260 19,800  Level Seattle Center
06:55PM 42.4578 -122.0161 349° North 228 262 19,800  Level Seattle Center
06:56PM 42.5192 -122.0319 349° North 226 260 19,800  Level Seattle Center
06:57PM 42.5814 -122.0486 349° North 228 262 19,800  Level Seattle Center
06:58PM 42.6431 -122.0647 349° North 227 261 19,800  Level Seattle Center
06:59PM 42.7047 -122.0800 350° North 225 259 19,800  Level Seattle Center
07:00PM 42.7667 -122.0981 348° North 227 261 19,800  Level Seattle Center
07:01PM 42.8297 -122.1133 350° North 229 264 19,800  Level Seattle Center
07:02PM 42.8919 -122.1314 348° North 229 264 19,800  Level Seattle Center
07:03PM 42.9550 -122.1450 351° North 229 264 19,800  Level Seattle Center
07:04PM 43.0297 -122.1647 349° North 226 260 19,800  Level Seattle Center
07:05PM 43.0917 -122.1808 349° North 227 261 19,800  Level Seattle Center
07:06PM 43.1547 -122.1978 349° North 229 264 19,800  Level Seattle Center
07:07PM 43.2169 -122.2133 350° North 229 264 19,800  Level Seattle Center
07:08PM 43.2844 -122.2325 348° North 232 267 19,800  Level Seattle Center
07:09PM 43.3478 -122.2497 349° North 232 267 19,800  Level Seattle Center
07:10PM 43.4103 -122.2656 350° North 229 264 19,800 60 Level Seattle Center
07:11PM 43.4728 -122.2811 350° North 227 261 20,000 60 Climbing Seattle Center
07:12PM 43.5336 -122.3000 347° North 224 258 20,000  Level Seattle Center
07:13PM 43.5972 -122.3153 350° North 230 265 20,000  Level Seattle Center
07:14PM 43.6592 -122.3336 348° North 228 262 20,000  Level Seattle Center
07:15PM 43.7225 -122.3500 349° North 230 265 20,000  Level Seattle Center
07:16PM 43.7858 -122.3667 349° North 232 267 20,000  Level Seattle Center
07:17PM 43.8511 -122.3828 350° North 239 275 20,000  Level Seattle Center
07:18PM 43.9150 -122.3997 349° North 235 270 20,000  Level Seattle Center
07:19PM 43.9917 -122.4203 349° North 234 269 20,000 -60 Level Seattle Center
07:20PM 44.0556 -122.4381 349° North 235 270 19,900 -660 Descending Seattle Center
07:21PM 44.1242 -122.4567 349° North 248 285 18,700 -1,140 Descending Seattle Center
07:22PM 44.2011 -122.4781 349° North 268 308 17,700 -780 Descending Seattle Center
07:23PM 44.2758 -122.4986 349° North 268 308 17,200 -780 Descending Seattle Center
07:24PM 44.3456 -122.5178 349° North 272 313 16,200 -1,080 Descending Seattle Center
07:25PM 44.4175 -122.5378 349° North 267 307 15,100 -1,080 Descending Seattle Center
07:26PM 44.4892 -122.5583 348° North 264 304 14,100 -960 Descending Seattle Center
07:27PM 44.5581 -122.5769 349° North 256 295 13,200 -1,140 Descending Seattle Center
07:28PM 44.6317 -122.5981 348° North 256 295 11,800 -1,320 Descending Seattle Center
07:29PM 44.6992 -122.6161 349° North 252 290 10,600 -1,260 Descending Seattle Center
07:30PM 44.7633 -122.6408 345° North 243 280 9,300 -1,440 Descending Seattle Center
07:30PM 44.7764 -122.6475 340° North 239 275 9,100 -1,320 Descending Seattle Center
07:31PM 44.8283 -122.6672 345° North 243 280 8,000 -1,200 Descending Seattle Center
07:32PM 44.8867 -122.6886 345° North 245 282 7,100 -1,200 Descending Seattle Center
07:32PM 44.8944 -122.6869 North 243 280 6,800 -1,500 Descending Seattle Center
07:33PM 44.9422 -122.7178 335° Northwest 234 269 5,800 -1,380 Descending Seattle Center
07:33PM 44.9525 -122.7222 343° North 233 268 5,400 -1,560 Descending Seattle Center
07:34PM 44.9964 -122.7389 345° North 226 260 4,400 -1,200 Descending Seattle Center
07:34PM 45.0228 -122.7444 352° North 221 254 4,200 -480 Descending Seattle Center